createdAt,value
2023-05-17T00:00:57.763Z,27.24
2023-05-17T00:03:25.140Z,27.49
2023-05-17T00:05:51.920Z,26.98
2023-05-17T00:08:18.773Z,26.95
2023-05-17T00:10:45.390Z,26.18
2023-05-17T00:13:12.606Z,26.49
2023-05-17T00:15:39.255Z,26.51
2023-05-17T00:18:05.937Z,26.26
2023-05-17T00:20:33.012Z,26.41
2023-05-17T00:23:00.745Z,26.26
2023-05-17T00:25:27.532Z,26.53
2023-05-17T00:27:54.241Z,26.65
2023-05-17T00:30:21.179Z,26.68
2023-05-17T00:32:48.440Z,27.15
2023-05-17T00:35:15.239Z,26.81
2023-05-17T00:37:47.564Z,26.58
2023-05-17T00:40:16.232Z,26.81
2023-05-17T00:42:42.833Z,27.26
2023-05-17T00:45:09.877Z,27.33
2023-05-17T00:47:36.585Z,27.14
2023-05-17T00:50:04.159Z,26.89
2023-05-17T00:52:30.871Z,26.91
2023-05-17T00:54:57.662Z,26.97
2023-05-17T00:57:24.853Z,26.77
2023-05-17T00:59:52.651Z,26.33
2023-05-17T01:02:19.698Z,25.57
2023-05-17T01:04:48.145Z,26.44
2023-05-17T01:07:15.687Z,26.17
2023-05-17T01:09:46.742Z,26.29
2023-05-17T01:12:49.289Z,26.05
2023-05-17T01:15:26.002Z,26.52
2023-05-17T01:18:04.483Z,26.67
2023-05-17T01:20:41.910Z,26.52
2023-05-17T01:23:28.837Z,26.19
2023-05-17T01:26:09.592Z,26.41
2023-05-17T01:28:38.885Z,26.49
2023-05-17T01:31:08.327Z,25.93
2023-05-17T01:33:37.996Z,25.84
2023-05-17T01:36:05.125Z,25.54
2023-05-17T01:38:31.706Z,26.06
2023-05-17T01:41:30.688Z,26.66
2023-05-17T01:44:17.956Z,26.65
2023-05-17T01:46:44.696Z,26.49
2023-05-17T01:49:37.560Z,26.55
2023-05-17T01:52:07.800Z,26.46
2023-05-17T01:54:43.416Z,26.45
2023-05-17T01:57:11.547Z,26.71
2023-05-17T01:59:38.828Z,26.58
2023-05-17T02:02:11.986Z,26.36
2023-05-17T02:04:38.638Z,26.18
2023-05-17T02:07:05.364Z,26.39
2023-05-17T02:09:31.969Z,26.47
2023-05-17T02:11:59.302Z,26.45
2023-05-17T02:14:26.003Z,26.52
2023-05-17T02:16:53.055Z,26.45
2023-05-17T02:19:19.746Z,26.58
2023-05-17T02:21:46.410Z,26.01
2023-05-17T02:24:13.012Z,26.09
2023-05-17T02:26:42.816Z,26.05
2023-05-17T02:29:13.510Z,26.07
2023-05-17T02:31:40.300Z,26.08
2023-05-17T02:34:07.100Z,25.56
2023-05-17T02:36:33.668Z,25.80
2023-05-17T02:39:00.700Z,25.46
2023-05-17T02:41:27.324Z,25.42
2023-05-17T02:43:54.211Z,25.67
2023-05-17T02:46:21.862Z,25.35
2023-05-17T02:48:49.648Z,25.28
2023-05-17T02:51:16.814Z,25.39
2023-05-17T02:53:43.443Z,25.04
2023-05-17T02:56:10.140Z,25.10
2023-05-17T02:58:36.968Z,25.15
2023-05-17T03:01:03.594Z,24.51
2023-05-17T03:03:31.765Z,24.09
2023-05-17T03:06:02.861Z,24.38
2023-05-17T03:08:29.535Z,24.37
2023-05-17T03:10:57.158Z,25.03
2023-05-17T03:13:24.802Z,23.98
2023-05-17T03:15:51.414Z,24.70
2023-05-17T03:18:18.300Z,25.23
2023-05-17T03:20:45.008Z,25.38
2023-05-17T03:23:11.590Z,25.47
2023-05-17T03:25:48.534Z,25.07
2023-05-17T03:28:15.179Z,25.17
2023-05-17T03:30:42.255Z,25.42
2023-05-17T03:33:09.391Z,25.42
2023-05-17T03:35:36.775Z,25.64
2023-05-17T03:38:03.392Z,25.68
2023-05-17T03:40:30.454Z,25.62
2023-05-17T03:42:58.979Z,25.60
2023-05-17T03:45:27.779Z,25.28
2023-05-17T03:47:54.863Z,25.61
2023-05-17T03:50:21.874Z,25.60
2023-05-17T03:52:48.907Z,25.26
2023-05-17T03:55:15.495Z,24.97
2023-05-17T03:57:42.100Z,25.02
2023-05-17T04:00:11.006Z,25.29
2023-05-17T04:02:41.430Z,25.43
2023-05-17T04:05:08.770Z,24.96
2023-05-17T04:07:35.464Z,24.98
2023-05-17T04:10:06.039Z,25.39
2023-05-17T04:12:32.659Z,25.33
2023-05-17T04:14:59.273Z,25.47
2023-05-17T04:17:25.896Z,25.76
2023-05-17T04:19:55.534Z,25.90
2023-05-17T04:22:22.715Z,26.47
2023-05-17T04:24:49.724Z,26.28
2023-05-17T04:27:16.919Z,26.19
2023-05-17T04:29:44.268Z,26.34
2023-05-17T04:32:10.910Z,26.00
2023-05-17T04:34:38.363Z,26.81
2023-05-17T04:37:06.165Z,26.74
2023-05-17T04:39:34.971Z,27.03
2023-05-17T04:42:02.311Z,26.93
2023-05-17T04:44:29.570Z,26.23
2023-05-17T04:46:56.815Z,25.89
2023-05-17T04:49:25.134Z,25.67
2023-05-17T04:51:52.508Z,24.76
2023-05-17T04:54:19.222Z,24.76
2023-05-17T04:56:46.117Z,24.73
2023-05-17T04:59:19.155Z,25.28
2023-05-17T05:01:46.111Z,25.52
2023-05-17T05:04:12.943Z,26.08
2023-05-17T05:06:42.522Z,26.39
2023-05-17T05:09:09.870Z,26.56
2023-05-17T05:11:38.095Z,25.71
2023-05-17T05:14:05.978Z,25.66
2023-05-17T05:16:33.511Z,25.76
2023-05-17T05:19:00.695Z,25.86
2023-05-17T05:21:27.519Z,27.11
2023-05-17T05:23:54.940Z,29.50
2023-05-17T05:26:21.883Z,31.02
2023-05-17T05:28:49.323Z,31.62
2023-05-17T05:31:16.415Z,33.01
2023-05-17T05:33:48.716Z,34.13
2023-05-17T05:36:15.704Z,34.45
2023-05-17T05:38:42.425Z,34.15
2023-05-17T05:41:09.053Z,34.62
2023-05-17T05:43:37.858Z,33.92
2023-05-17T05:46:04.808Z,32.71
2023-05-17T05:48:31.495Z,32.22
2023-05-17T05:50:58.125Z,31.84
2023-05-17T05:53:25.517Z,30.95
2023-05-17T05:55:54.577Z,31.66
2023-05-17T05:58:21.389Z,32.42
2023-05-17T06:00:48.107Z,33.22
2023-05-17T06:03:15.275Z,32.53
2023-05-17T06:05:42.187Z,31.87
2023-05-17T06:08:08.958Z,32.90
2023-05-17T06:10:35.687Z,34.43
2023-05-17T06:13:02.617Z,35.78
2023-05-17T06:15:31.304Z,35.35
2023-05-17T06:17:57.989Z,35.74
2023-05-17T06:20:24.617Z,34.62
2023-05-17T06:22:51.707Z,34.62
2023-05-17T06:25:18.284Z,35.93
2023-05-17T06:27:44.973Z,37.41
2023-05-17T06:30:15.158Z,37.23
2023-05-17T06:32:42.199Z,37.86
2023-05-17T06:35:09.327Z,37.47
2023-05-17T06:37:35.952Z,36.10
2023-05-17T06:40:14.838Z,34.75
2023-05-17T06:42:42.595Z,33.13
2023-05-17T06:45:09.822Z,31.61
2023-05-17T06:47:36.473Z,31.39
2023-05-17T06:50:03.351Z,29.32
2023-05-17T06:52:29.990Z,28.72
2023-05-17T06:54:56.970Z,28.22
2023-05-17T06:57:24.766Z,27.67
2023-05-17T06:59:52.184Z,28.57
2023-05-17T07:02:19.811Z,28.88
2023-05-17T07:04:46.511Z,29.28
2023-05-17T07:07:13.123Z,28.13
2023-05-17T07:09:40.224Z,28.39
2023-05-17T07:12:07.271Z,28.43
2023-05-17T07:14:34.107Z,29.49
2023-05-17T07:17:00.704Z,29.22
2023-05-17T07:19:27.731Z,29.21
2023-05-17T07:21:54.451Z,29.92
2023-05-17T07:24:21.251Z,30.45
2023-05-17T07:26:48.175Z,30.05
2023-05-17T07:29:16.138Z,30.77
2023-05-17T07:31:42.755Z,30.37
2023-05-17T07:34:09.357Z,29.91
2023-05-17T07:36:36.006Z,29.58
2023-05-17T07:39:05.202Z,28.89
2023-05-17T07:41:34.008Z,27.05
2023-05-17T07:44:00.587Z,27.04
2023-05-17T07:46:27.310Z,27.88
2023-05-17T07:48:55.837Z,28.08
2023-05-17T07:51:24.790Z,27.12
2023-05-17T07:53:51.829Z,26.68
2023-05-17T07:56:18.399Z,28.43
2023-05-17T07:58:44.955Z,30.36
2023-05-17T08:01:11.593Z,31.16
2023-05-17T08:03:38.170Z,31.37
2023-05-17T08:06:05.450Z,30.83
2023-05-17T08:08:32.032Z,31.03
2023-05-17T08:10:58.572Z,30.43
2023-05-17T08:13:25.980Z,29.19
2023-05-17T08:16:01.730Z,28.40
2023-05-17T08:18:37.262Z,28.70
2023-05-17T08:21:04.706Z,28.41
2023-05-17T08:23:31.609Z,29.09
2023-05-17T08:25:58.307Z,29.36
2023-05-17T08:28:28.460Z,29.97
2023-05-17T08:30:55.416Z,29.04
2023-05-17T08:33:23.403Z,28.63
2023-05-17T08:35:50.478Z,28.79
2023-05-17T08:38:19.940Z,28.56
2023-05-17T08:40:55.060Z,28.81
2023-05-17T08:43:24.221Z,27.78
2023-05-17T08:45:53.167Z,26.88
2023-05-17T08:48:20.766Z,26.82
2023-05-17T08:50:50.508Z,26.97
2023-05-17T08:53:18.085Z,27.34
2023-05-17T08:55:48.850Z,27.22
2023-05-17T08:58:21.312Z,27.60
2023-05-17T09:00:51.643Z,27.95
2023-05-17T09:03:22.390Z,28.45
2023-05-17T09:05:53.836Z,28.86
2023-05-17T09:08:22.785Z,29.32
2023-05-17T09:10:50.612Z,30.40
2023-05-17T09:13:18.073Z,30.45
2023-05-17T09:15:47.292Z,31.56
2023-05-17T09:18:17.027Z,31.57
2023-05-17T09:20:51.673Z,31.19
2023-05-17T09:23:21.449Z,31.37
2023-05-17T09:25:49.223Z,31.18
2023-05-17T09:28:18.892Z,30.28
2023-05-17T09:30:49.364Z,29.77
2023-05-17T09:33:18.567Z,30.05
2023-05-17T09:35:45.721Z,29.77
2023-05-17T09:38:14.162Z,29.22
2023-05-17T09:40:42.515Z,29.19
2023-05-17T09:43:10.869Z,28.91
2023-05-17T09:45:38.025Z,28.72
2023-05-17T09:48:22.556Z,28.11
2023-05-17T09:50:52.004Z,27.86
2023-05-17T09:53:39.958Z,29.13
2023-05-17T09:56:07.177Z,28.53
2023-05-17T09:58:37.741Z,28.68
2023-05-17T10:01:07.226Z,28.05
2023-05-17T10:03:38.514Z,28.09
2023-05-17T10:06:13.464Z,29.63
2023-05-17T10:08:51.358Z,29.77
2023-05-17T10:11:21.325Z,30.62
2023-05-17T10:13:55.486Z,30.59
2023-05-17T10:16:23.376Z,30.10
2023-05-17T10:18:50.291Z,29.10
2023-05-17T10:21:17.818Z,29.23
2023-05-17T10:23:46.650Z,29.10
2023-05-17T10:26:16.001Z,28.12
2023-05-17T10:28:43.211Z,28.90
2023-05-17T10:31:10.128Z,29.34
2023-05-17T10:33:37.382Z,28.36
2023-05-17T10:36:06.675Z,28.33
2023-05-17T10:38:41.680Z,28.49
2023-05-17T10:41:14.361Z,30.00
2023-05-17T10:43:42.981Z,30.83
2023-05-17T10:46:16.783Z,30.57
2023-05-17T10:48:52.128Z,31.26
2023-05-17T10:51:31.401Z,32.02
2023-05-17T10:54:08.853Z,31.61
2023-05-17T10:56:40.287Z,30.72
2023-05-17T10:59:19.590Z,29.60
2023-05-17T11:02:06.128Z,30.52
2023-05-17T11:04:38.252Z,29.59
2023-05-17T11:07:17.878Z,29.81
2023-05-17T11:09:46.195Z,29.93
2023-05-17T11:12:15.804Z,30.58
2023-05-17T11:14:45.533Z,30.95
2023-05-17T11:17:17.978Z,31.65
2023-05-17T11:20:10.914Z,30.88
2023-05-17T11:22:49.527Z,30.12
2023-05-17T11:25:17.250Z,29.94
2023-05-17T11:27:49.110Z,28.89
2023-05-17T11:30:24.775Z,30.17
2023-05-17T11:32:53.616Z,31.22
2023-05-17T11:35:26.316Z,30.67
2023-05-17T11:37:54.242Z,30.39
2023-05-17T11:40:28.290Z,29.21
2023-05-17T11:43:12.246Z,29.19
2023-05-17T11:45:44.239Z,30.22
2023-05-17T11:48:15.049Z,31.10
2023-05-17T11:50:42.784Z,31.18
2023-05-17T11:53:10.186Z,31.64
2023-05-17T11:55:41.852Z,30.90
2023-05-17T11:58:12.577Z,30.06
2023-05-17T12:00:41.899Z,29.68
2023-05-17T12:03:36.542Z,30.43
2023-05-17T12:06:13.492Z,30.40
2023-05-17T12:08:43.562Z,32.10
2023-05-17T12:11:14.730Z,31.96
2023-05-17T12:13:42.586Z,30.74
2023-05-17T12:16:14.017Z,29.52
2023-05-17T12:18:49.637Z,29.86
2023-05-17T12:21:18.613Z,29.56
2023-05-17T12:23:49.579Z,29.00
2023-05-17T12:26:19.647Z,29.84
2023-05-17T12:28:54.746Z,29.98
2023-05-17T12:31:35.770Z,29.70
2023-05-17T12:34:05.153Z,30.20
2023-05-17T12:36:33.558Z,30.02
2023-05-17T12:39:01.754Z,30.40
2023-05-17T12:41:30.772Z,29.66
2023-05-17T12:44:13.784Z,29.02
2023-05-17T12:46:41.878Z,29.49
2023-05-17T12:49:10.963Z,29.05
2023-05-17T12:51:47.859Z,29.35
2023-05-17T12:54:25.364Z,28.87
2023-05-17T12:56:52.323Z,28.50
2023-05-17T12:59:20.934Z,29.15
2023-05-17T13:01:49.746Z,29.21
2023-05-17T13:04:17.612Z,28.82
2023-05-17T13:06:54.318Z,28.79
2023-05-17T13:09:24.958Z,29.22
2023-05-17T13:11:56.391Z,29.55
2023-05-17T13:14:45.395Z,30.34
2023-05-17T13:17:24.907Z,31.60
2023-05-17T13:19:51.979Z,32.20
2023-05-17T13:22:18.861Z,32.45
2023-05-17T13:24:45.861Z,30.90
2023-05-17T13:27:12.657Z,29.16
2023-05-17T13:29:42.395Z,28.62
2023-05-17T13:32:12.016Z,29.09
2023-05-17T13:34:39.077Z,29.07
2023-05-17T13:37:08.657Z,29.24
2023-05-17T13:39:37.146Z,28.97
2023-05-17T13:42:04.504Z,28.30
2023-05-17T13:44:31.548Z,27.70
2023-05-17T13:46:58.125Z,27.15
2023-05-17T13:49:24.933Z,27.44
2023-05-17T13:51:51.802Z,27.51
2023-05-17T13:54:20.145Z,27.61
2023-05-17T13:56:46.961Z,28.27
2023-05-17T13:59:15.139Z,27.16
2023-05-17T14:01:43.362Z,27.65
2023-05-17T14:04:10.239Z,28.45
2023-05-17T14:06:36.921Z,28.48
2023-05-17T14:09:04.305Z,27.85
2023-05-17T14:11:30.981Z,28.53
2023-05-17T14:13:57.979Z,28.60
2023-05-17T14:16:24.707Z,29.20
2023-05-17T14:18:51.398Z,29.29
2023-05-17T14:21:18.107Z,29.79
2023-05-17T14:23:44.724Z,29.62
2023-05-17T14:26:11.968Z,28.84
2023-05-17T14:28:39.075Z,29.25
2023-05-17T14:31:07.493Z,28.53
2023-05-17T14:33:34.476Z,27.17
2023-05-17T14:36:01.319Z,28.97
2023-05-17T14:38:28.149Z,29.15
2023-05-17T14:40:55.086Z,29.84
2023-05-17T14:43:22.213Z,29.77
2023-05-17T14:45:50.026Z,30.41
2023-05-17T14:48:16.693Z,29.87
2023-05-17T14:50:43.358Z,28.69
2023-05-17T14:53:12.896Z,28.99
2023-05-17T14:55:39.586Z,28.67
2023-05-17T14:58:06.406Z,28.91
2023-05-17T15:00:33.261Z,29.43
2023-05-17T15:02:59.904Z,29.55
2023-05-17T15:05:27.842Z,29.80
2023-05-17T15:07:54.794Z,29.18
2023-05-17T15:10:21.538Z,29.28
2023-05-17T15:12:48.646Z,28.96
2023-05-17T15:15:15.263Z,29.60
2023-05-17T15:17:42.512Z,29.27
2023-05-17T15:20:10.868Z,29.64
2023-05-17T15:22:37.692Z,29.28
2023-05-17T15:25:05.940Z,30.14
2023-05-17T15:27:32.758Z,30.52
2023-05-17T15:29:59.347Z,30.51
2023-05-17T15:32:26.530Z,31.14
2023-05-17T15:34:53.133Z,30.83
2023-05-17T15:37:19.681Z,30.46
2023-05-17T15:39:46.456Z,31.42
2023-05-17T15:42:13.072Z,31.12
2023-05-17T15:44:39.693Z,30.39
2023-05-17T15:47:06.613Z,29.34
2023-05-17T15:49:33.663Z,28.41
2023-05-17T15:52:00.370Z,27.82
2023-05-17T15:54:26.968Z,27.76
2023-05-17T15:56:53.577Z,26.93
2023-05-17T15:59:20.228Z,27.02
2023-05-17T16:01:46.844Z,26.68
2023-05-17T16:04:14.043Z,26.12
2023-05-17T16:06:41.102Z,27.15
2023-05-17T16:09:07.907Z,28.19
2023-05-17T16:11:34.576Z,27.80
2023-05-17T16:14:01.223Z,27.73
2023-05-17T16:16:28.146Z,27.66
2023-05-17T16:18:54.991Z,27.45
2023-05-17T16:21:21.762Z,26.34
2023-05-17T16:23:49.160Z,26.10
2023-05-17T16:26:15.787Z,26.58
2023-05-17T16:28:42.904Z,26.63
2023-05-17T16:31:09.774Z,25.83
2023-05-17T16:33:37.024Z,26.65
2023-05-17T16:36:04.890Z,26.15
2023-05-17T16:38:32.023Z,26.34
2023-05-17T16:41:02.968Z,26.34
2023-05-17T16:43:31.411Z,25.64
2023-05-17T16:45:58.005Z,26.94
2023-05-17T16:48:24.696Z,27.10
2023-05-17T16:50:51.577Z,26.88
2023-05-17T16:53:18.370Z,26.95
2023-05-17T16:55:44.953Z,27.28
2023-05-17T16:58:14.932Z,27.45
2023-05-17T17:00:42.033Z,27.92
2023-05-17T17:03:09.754Z,28.10
2023-05-17T17:05:37.148Z,27.67
2023-05-17T17:08:03.794Z,28.08
2023-05-17T17:10:30.723Z,27.41
2023-05-17T17:12:57.594Z,28.20
2023-05-17T17:15:24.529Z,27.48
2023-05-17T17:17:51.308Z,27.68
2023-05-17T17:20:18.273Z,28.30
2023-05-17T17:22:44.860Z,28.42
2023-05-17T17:25:11.833Z,27.53
2023-05-17T17:27:38.787Z,27.32
2023-05-17T17:30:06.860Z,27.20
2023-05-17T17:32:33.747Z,27.98
2023-05-17T17:35:00.568Z,27.75
2023-05-17T17:37:27.195Z,26.26
2023-05-17T17:39:54.438Z,26.55
2023-05-17T17:42:21.212Z,27.16
2023-05-17T17:44:47.786Z,27.16
2023-05-17T17:47:14.664Z,26.73
2023-05-17T17:49:41.329Z,26.70
2023-05-17T17:52:07.951Z,26.42
2023-05-17T17:54:34.554Z,26.00
2023-05-17T17:57:02.331Z,25.77
2023-05-17T17:59:29.173Z,25.75
2023-05-17T18:01:56.363Z,26.46
2023-05-17T18:04:23.005Z,26.09
2023-05-17T18:06:50.068Z,26.10
2023-05-17T18:09:16.740Z,25.82
2023-05-17T18:11:43.794Z,26.06
2023-05-17T18:14:10.394Z,26.07
2023-05-17T18:16:37.813Z,25.84
2023-05-17T18:19:04.571Z,25.72
2023-05-17T18:21:31.293Z,25.89
2023-05-17T18:23:58.296Z,26.37
2023-05-17T18:26:25.865Z,26.31
2023-05-17T18:28:52.663Z,26.29
2023-05-17T18:31:19.801Z,26.62
2023-05-17T18:33:46.599Z,26.53
2023-05-17T18:36:13.355Z,26.79
2023-05-17T18:38:40.274Z,26.81
2023-05-17T18:41:07.090Z,26.85
2023-05-17T18:43:33.908Z,26.68
2023-05-17T18:46:00.942Z,26.75
2023-05-17T18:48:28.394Z,26.86
2023-05-17T18:50:57.357Z,26.78
2023-05-17T18:53:24.312Z,26.02
2023-05-17T18:55:51.298Z,26.29
2023-05-17T18:58:18.366Z,25.44
2023-05-17T19:00:48.017Z,25.74
2023-05-17T19:03:15.316Z,25.81
2023-05-17T19:05:42.085Z,26.38
2023-05-17T19:08:08.863Z,26.29
2023-05-17T19:10:35.792Z,26.09
2023-05-17T19:13:02.784Z,26.36
2023-05-17T19:15:32.970Z,26.39
2023-05-17T19:18:00.386Z,26.10
2023-05-17T19:20:27.240Z,26.61
2023-05-17T19:22:53.968Z,26.59
2023-05-17T19:25:21.206Z,25.87
2023-05-17T19:27:48.264Z,26.81
2023-05-17T19:30:15.279Z,27.12
2023-05-17T19:32:42.094Z,26.62
2023-05-17T19:35:09.489Z,27.15
2023-05-17T19:37:36.527Z,26.98
2023-05-17T19:40:06.089Z,26.60
2023-05-17T19:42:32.952Z,26.56
2023-05-17T19:44:59.757Z,27.09
2023-05-17T19:47:26.528Z,26.44
2023-05-17T19:49:53.822Z,26.57
2023-05-17T19:52:23.413Z,25.85
2023-05-17T19:54:50.120Z,26.09
2023-05-17T19:57:16.899Z,25.86
2023-05-17T19:59:43.868Z,26.09
2023-05-17T20:02:10.776Z,26.13
2023-05-17T20:04:38.018Z,26.06
2023-05-17T20:07:04.791Z,25.25
2023-05-17T20:09:32.100Z,25.46
2023-05-17T20:11:59.333Z,25.53
2023-05-17T20:14:27.180Z,25.33
2023-05-17T20:16:54.129Z,25.20
2023-05-17T20:19:21.403Z,25.50
2023-05-17T20:21:48.644Z,25.87
2023-05-17T20:24:15.773Z,25.90
2023-05-17T20:26:45.779Z,26.17
2023-05-17T20:29:12.543Z,26.45
2023-05-17T20:31:39.427Z,25.84
2023-05-17T20:34:06.410Z,25.10
2023-05-17T20:36:33.298Z,25.44
2023-05-17T20:39:00.116Z,25.94
2023-05-17T20:41:27.376Z,26.03
2023-05-17T20:43:54.536Z,26.12
2023-05-17T20:46:21.855Z,26.21
2023-05-17T20:48:49.801Z,26.08
2023-05-17T20:51:19.612Z,25.90
2023-05-17T20:53:46.417Z,25.99
2023-05-17T20:56:14.198Z,25.92
2023-05-17T20:58:41.327Z,26.09
2023-05-17T21:01:08.175Z,26.20
2023-05-17T21:03:35.086Z,25.90
2023-05-17T21:06:02.489Z,26.16
2023-05-17T21:08:29.337Z,26.20
2023-05-17T21:10:56.447Z,26.13
2023-05-17T21:13:25.712Z,25.88
2023-05-17T21:15:56.543Z,26.08
2023-05-17T21:18:24.107Z,26.04
2023-05-17T21:20:51.620Z,26.12
2023-05-17T21:23:19.162Z,26.04
2023-05-17T21:25:45.787Z,25.90
2023-05-17T21:28:12.346Z,25.93
2023-05-17T21:30:38.974Z,25.58
2023-05-17T21:33:06.265Z,25.65
2023-05-17T21:35:33.117Z,25.92
2023-05-17T21:37:59.802Z,25.79
2023-05-17T21:40:26.487Z,26.19
2023-05-17T21:42:53.690Z,26.40
2023-05-17T21:45:20.421Z,26.57
2023-05-17T21:47:47.079Z,26.59
2023-05-17T21:50:13.995Z,26.61
2023-05-17T21:52:40.629Z,26.44
2023-05-17T21:55:08.495Z,26.47
2023-05-17T21:57:38.495Z,26.55
2023-05-17T22:00:07.728Z,26.32
2023-05-17T22:02:35.832Z,26.26
2023-05-17T22:05:02.605Z,26.27
2023-05-17T22:07:29.272Z,26.45
2023-05-17T22:09:56.176Z,26.48
2023-05-17T22:12:25.310Z,26.44
2023-05-17T22:14:56.837Z,26.64
2023-05-17T22:17:35.032Z,26.91
2023-05-17T22:20:11.313Z,26.96
2023-05-17T22:22:38.171Z,26.84
2023-05-17T22:25:06.779Z,27.06
2023-05-17T22:27:33.532Z,27.15
2023-05-17T22:30:00.770Z,27.05
2023-05-17T22:32:27.561Z,27.11
2023-05-17T22:34:56.125Z,26.61
2023-05-17T22:37:23.558Z,26.02
2023-05-17T22:39:50.617Z,26.29
2023-05-17T22:42:17.266Z,26.72
2023-05-17T22:44:43.845Z,26.95
2023-05-17T22:47:14.559Z,26.98
2023-05-17T22:49:41.602Z,27.04
2023-05-17T22:52:08.985Z,27.22
2023-05-17T22:54:36.694Z,27.15
2023-05-17T22:57:04.892Z,27.31
2023-05-17T22:59:33.134Z,27.37
2023-05-17T23:02:01.744Z,27.39
2023-05-17T23:04:29.915Z,27.37
2023-05-17T23:07:04.056Z,27.33
2023-05-17T23:09:31.013Z,27.31
2023-05-17T23:12:00.383Z,27.23
2023-05-17T23:14:27.589Z,27.16
2023-05-17T23:16:54.287Z,27.11
2023-05-17T23:19:23.366Z,27.14
2023-05-17T23:21:50.094Z,27.08
2023-05-17T23:24:17.481Z,27.26
2023-05-17T23:26:44.140Z,27.16
2023-05-17T23:29:10.766Z,26.94
2023-05-17T23:31:37.844Z,26.78
2023-05-17T23:34:06.682Z,26.77
2023-05-17T23:36:33.902Z,26.73
2023-05-17T23:39:00.509Z,26.87
2023-05-17T23:41:29.306Z,26.96
2023-05-17T23:43:57.293Z,27.05
2023-05-17T23:46:24.220Z,27.03
2023-05-17T23:48:50.929Z,27.00
2023-05-17T23:51:20.881Z,27.04
2023-05-17T23:53:50.341Z,26.65
2023-05-17T23:56:18.113Z,26.62
2023-05-17T23:58:47.782Z,25.93
